createdAt,value
2018-11-02T00:00:44.931Z,20.35
2018-11-02T00:03:13.788Z,19.77
2018-11-02T00:05:43.061Z,20.55
2018-11-02T00:08:12.003Z,21.05
2018-11-02T00:10:40.859Z,22.50
2018-11-02T00:13:09.738Z,19.23
2018-11-02T00:15:38.899Z,19.80
2018-11-02T00:18:07.861Z,17.87
2018-11-02T00:20:36.805Z,18.60
2018-11-02T00:23:05.755Z,16.23
2018-11-02T00:25:34.614Z,16.60
2018-11-02T00:28:03.487Z,18.27
2018-11-02T00:30:32.377Z,16.50
2018-11-02T00:33:01.278Z,17.30
2018-11-02T00:35:30.167Z,17.25
2018-11-02T00:37:59.139Z,16.93
2018-11-02T00:40:28.022Z,16.48
2018-11-02T00:42:56.927Z,15.83
2018-11-02T00:45:25.772Z,15.35
2018-11-02T00:47:54.706Z,14.80
2018-11-02T00:50:23.520Z,12.63
2018-11-02T00:52:52.336Z,11.88
2018-11-02T00:55:21.192Z,14.00
2018-11-02T00:57:50.052Z,13.00
2018-11-02T01:00:18.944Z,14.90
2018-11-02T01:02:47.861Z,13.50
2018-11-02T01:05:16.648Z,12.67
2018-11-02T01:07:51.445Z,14.23
2018-11-02T01:10:20.283Z,12.60
2018-11-02T01:12:49.136Z,13.85
2018-11-02T01:15:17.962Z,13.90
2018-11-02T01:17:46.839Z,14.20
2018-11-02T01:20:15.660Z,12.43
2018-11-02T01:22:44.598Z,12.82
2018-11-02T01:25:13.488Z,12.63
2018-11-02T01:27:42.325Z,12.70
2018-11-02T01:30:11.234Z,11.70
2018-11-02T01:32:40.106Z,11.33
2018-11-02T01:35:09.426Z,11.87
2018-11-02T01:37:38.372Z,12.98
2018-11-02T01:40:07.872Z,13.58
2018-11-02T01:42:36.690Z,14.05
2018-11-02T01:45:05.616Z,14.00
2018-11-02T01:47:34.489Z,14.55
2018-11-02T01:50:03.522Z,15.25
2018-11-02T01:52:32.375Z,14.07
2018-11-02T01:55:01.378Z,14.13
2018-11-02T01:57:30.208Z,13.43
2018-11-02T01:59:59.000Z,12.80
2018-11-02T02:02:27.883Z,13.65
2018-11-02T02:04:56.778Z,13.72
2018-11-02T02:07:25.673Z,12.85
2018-11-02T02:09:54.597Z,13.80
2018-11-02T02:12:26.296Z,12.10
2018-11-02T02:14:57.815Z,12.50
2018-11-02T02:17:31.434Z,10.70
2018-11-02T02:20:01.987Z,11.38
2018-11-02T02:22:31.506Z,11.70
2018-11-02T02:25:02.510Z,11.60
2018-11-02T02:27:37.707Z,11.20
2018-11-02T02:30:10.482Z,10.30
2018-11-02T02:32:39.376Z,10.90
2018-11-02T02:35:09.924Z,9.93
2018-11-02T02:37:39.867Z,11.20
2018-11-02T02:40:10.627Z,9.23
2018-11-02T02:42:39.887Z,10.50
2018-11-02T02:45:10.133Z,9.63
2018-11-02T02:47:39.515Z,8.63
2018-11-02T02:50:10.753Z,9.98
2018-11-02T02:52:39.651Z,9.30
2018-11-02T02:55:08.854Z,9.10
2018-11-02T02:57:38.175Z,9.80
2018-11-02T03:00:08.815Z,9.15
2018-11-02T03:02:37.643Z,9.57
2018-11-02T03:05:06.639Z,9.60
2018-11-02T03:07:35.460Z,9.50
2018-11-02T03:10:04.396Z,9.75
2018-11-02T03:12:33.199Z,9.07
2018-11-02T03:15:02.024Z,9.18
2018-11-02T03:17:30.810Z,9.68
2018-11-02T03:19:59.647Z,9.90
2018-11-02T03:22:28.743Z,9.83
2018-11-02T03:24:57.451Z,9.13
2018-11-02T03:27:26.408Z,9.20
2018-11-02T03:29:55.233Z,9.20
2018-11-02T03:32:24.109Z,8.55
2018-11-02T03:34:52.929Z,9.30
2018-11-02T03:37:21.875Z,8.73
2018-11-02T03:39:50.708Z,8.40
2018-11-02T03:42:19.603Z,8.40
2018-11-02T03:44:48.421Z,8.80
2018-11-02T03:47:17.251Z,9.30
2018-11-02T03:49:45.994Z,9.23
2018-11-02T03:52:14.835Z,8.00
2018-11-02T03:54:43.664Z,7.83
2018-11-02T03:57:12.618Z,9.40
2018-11-02T03:59:41.481Z,9.03
2018-11-02T04:02:10.628Z,9.10
2018-11-02T04:04:39.427Z,9.05
2018-11-02T04:07:08.246Z,9.03
2018-11-02T04:09:37.326Z,8.40
2018-11-02T04:12:06.194Z,9.15
2018-11-02T04:14:34.976Z,9.63
2018-11-02T04:17:03.803Z,8.93
2018-11-02T04:19:32.683Z,8.60
2018-11-02T04:22:01.491Z,8.87
2018-11-02T04:24:30.390Z,8.00
2018-11-02T04:26:59.231Z,8.58
2018-11-02T04:29:28.072Z,7.95
2018-11-02T04:31:58.706Z,7.78
2018-11-02T04:34:27.588Z,8.08
2018-11-02T04:36:56.396Z,7.87
2018-11-02T04:39:25.249Z,8.87
2018-11-02T04:41:54.082Z,8.07
2018-11-02T04:44:22.910Z,7.93
2018-11-02T04:46:51.729Z,8.20
2018-11-02T04:49:20.562Z,7.37
2018-11-02T04:51:49.406Z,7.35
2018-11-02T04:54:18.272Z,7.92
2018-11-02T04:56:47.196Z,9.17
2018-11-02T04:59:16.030Z,8.00
2018-11-02T05:01:44.960Z,9.30
2018-11-02T05:04:14.291Z,7.60
2018-11-02T05:06:43.096Z,7.40
2018-11-02T05:09:11.922Z,8.23
2018-11-02T05:11:40.763Z,8.43
2018-11-02T05:14:09.859Z,9.45
2018-11-02T05:16:38.692Z,7.73
2018-11-02T05:19:07.539Z,8.90
2018-11-02T05:21:36.377Z,9.27
2018-11-02T05:24:05.322Z,8.73
2018-11-02T05:26:34.154Z,7.83
2018-11-02T05:29:02.920Z,7.55
2018-11-02T05:31:31.795Z,8.75
2018-11-02T05:34:00.600Z,8.10
2018-11-02T05:36:29.459Z,7.50
2018-11-02T05:38:58.347Z,7.20
2018-11-02T05:41:27.184Z,7.30
2018-11-02T05:43:56.050Z,7.80
2018-11-02T05:46:24.879Z,8.23
2018-11-02T05:48:54.081Z,8.53
2018-11-02T05:51:22.957Z,8.15
2018-11-02T05:53:52.002Z,8.55
2018-11-02T05:56:20.831Z,7.90
2018-11-02T05:58:49.594Z,7.37
2018-11-02T06:01:18.606Z,6.85
2018-11-02T06:03:47.647Z,6.80
2018-11-02T06:06:16.511Z,7.05
2018-11-02T06:08:45.374Z,7.60
2018-11-02T06:11:14.275Z,7.35
2018-11-02T06:13:43.094Z,6.87
2018-11-02T06:16:12.375Z,6.60
2018-11-02T06:18:41.939Z,6.55
2018-11-02T06:21:10.824Z,6.30
2018-11-02T06:23:39.913Z,6.50
2018-11-02T06:26:09.217Z,6.70
2018-11-02T06:28:38.462Z,6.53
2018-11-02T06:31:07.727Z,5.45
2018-11-02T06:33:36.596Z,7.20
2018-11-02T06:36:05.510Z,6.55
2018-11-02T06:38:34.533Z,6.17
2018-11-02T06:41:03.479Z,6.05
2018-11-02T06:43:34.730Z,6.00
2018-11-02T06:46:05.162Z,5.70
2018-11-02T06:48:34.470Z,6.53
2018-11-02T06:51:03.497Z,6.55
2018-11-02T06:53:32.282Z,6.50
2018-11-02T06:56:01.136Z,6.17
2018-11-02T06:58:30.035Z,6.93
2018-11-02T07:00:58.813Z,6.20
2018-11-02T07:03:27.666Z,5.50
2018-11-02T07:05:56.844Z,5.30
2018-11-02T07:08:25.984Z,5.07
2018-11-02T07:10:54.843Z,5.90
2018-11-02T07:13:23.716Z,6.20
2018-11-02T07:15:52.554Z,4.50
2018-11-02T07:18:21.390Z,5.50
2018-11-02T07:20:50.150Z,5.60
2018-11-02T07:23:19.090Z,5.60
2018-11-02T07:25:47.947Z,5.05
2018-11-02T07:28:16.776Z,4.75
2018-11-02T07:30:45.594Z,4.85
2018-11-02T07:33:14.695Z,4.93
2018-11-02T07:35:44.774Z,5.33
2018-11-02T07:38:13.685Z,4.70
2018-11-02T07:40:42.578Z,5.37
2018-11-02T07:43:11.485Z,4.43
2018-11-02T07:45:40.382Z,4.50
2018-11-02T07:48:09.778Z,5.23
2018-11-02T07:50:39.064Z,4.00
2018-11-02T07:53:08.445Z,4.47
2018-11-02T07:55:37.859Z,4.27
2018-11-02T07:58:07.246Z,4.30
2018-11-02T08:00:36.549Z,4.47
2018-11-02T08:03:06.189Z,4.20
2018-11-02T08:05:35.608Z,4.20
2018-11-02T08:08:04.591Z,6.10
2018-11-02T08:10:34.152Z,5.23
2018-11-02T08:13:03.095Z,6.33
2018-11-02T08:15:32.061Z,6.80
2018-11-02T08:18:01.147Z,6.50
2018-11-02T08:20:30.024Z,6.07
2018-11-02T08:22:58.952Z,5.07
2018-11-02T08:25:27.894Z,5.00
2018-11-02T08:27:57.296Z,4.70
2018-11-02T08:30:26.613Z,3.93
2018-11-02T08:32:56.251Z,4.17
2018-11-02T08:35:25.734Z,4.40
2018-11-02T08:37:59.030Z,3.70
2018-11-02T08:40:27.986Z,4.30
2018-11-02T08:42:56.792Z,3.60
2018-11-02T08:45:26.382Z,3.50
2018-11-02T08:47:56.041Z,2.97
2018-11-02T08:50:26.373Z,3.83
2018-11-02T08:52:56.158Z,4.10
2018-11-02T08:55:25.618Z,4.37
2018-11-02T08:57:54.729Z,3.53
2018-11-02T09:00:23.537Z,3.20
2018-11-02T09:02:57.032Z,3.57
2018-11-02T09:05:29.436Z,3.90
2018-11-02T09:07:59.134Z,4.23
2018-11-02T09:10:28.511Z,3.73
2018-11-02T09:12:57.416Z,4.70
2018-11-02T09:15:26.290Z,3.77
2018-11-02T09:17:55.064Z,3.90
2018-11-02T09:20:23.994Z,4.00
2018-11-02T09:22:52.861Z,4.33
2018-11-02T09:25:21.806Z,4.60
2018-11-02T09:27:50.962Z,4.33
2018-11-02T09:30:20.433Z,4.83
2018-11-02T09:32:50.193Z,4.83
2018-11-02T09:35:19.154Z,5.30
2018-11-02T09:37:48.126Z,4.80
2018-11-02T09:40:17.172Z,5.20
2018-11-02T09:42:46.287Z,5.27
2018-11-02T09:45:15.410Z,4.60
2018-11-02T09:47:44.796Z,6.17
2018-11-02T09:50:13.755Z,8.80
2018-11-02T09:52:42.641Z,9.50
2018-11-02T09:55:13.411Z,6.17
2018-11-02T09:57:42.898Z,5.93
2018-11-02T10:00:12.914Z,6.40
2018-11-02T10:02:42.105Z,5.53
2018-11-02T10:05:11.971Z,6.10
2018-11-02T10:07:41.560Z,5.63
2018-11-02T10:10:11.682Z,5.83
2018-11-02T10:12:40.573Z,6.47
2018-11-02T10:15:11.955Z,5.23
2018-11-02T10:17:40.867Z,5.83
2018-11-02T10:20:10.271Z,5.60
2018-11-02T10:22:39.160Z,5.80
2018-11-02T10:25:08.812Z,5.83
2018-11-02T10:27:38.480Z,6.10
2018-11-02T10:30:09.303Z,6.00
2018-11-02T10:32:38.211Z,6.17
2018-11-02T10:35:08.155Z,6.33
2018-11-02T10:37:37.985Z,5.93
2018-11-02T10:40:11.013Z,6.73
2018-11-02T10:42:40.706Z,7.10
2018-11-02T10:45:10.683Z,6.83
2018-11-02T10:47:40.266Z,6.30
2018-11-02T10:50:09.392Z,6.30
2018-11-02T10:52:38.443Z,7.27
2018-11-02T10:55:07.558Z,6.73
2018-11-02T10:57:36.748Z,7.07
2018-11-02T11:00:12.060Z,7.60
2018-11-02T11:02:41.892Z,7.33
2018-11-02T11:05:12.189Z,6.53
2018-11-02T11:07:41.330Z,6.97
2018-11-02T11:10:11.253Z,6.23
2018-11-02T11:12:40.829Z,5.90
2018-11-02T11:15:10.126Z,6.60
2018-11-02T11:17:39.028Z,6.20
2018-11-02T11:20:12.498Z,6.03
2018-11-02T11:22:41.720Z,6.00
2018-11-02T11:25:12.805Z,5.47
2018-11-02T11:27:41.760Z,5.20
2018-11-02T11:30:18.885Z,6.10
2018-11-02T11:32:48.550Z,5.10
2018-11-02T11:35:18.154Z,5.60
2018-11-02T11:37:47.138Z,5.73
2018-11-02T11:40:17.499Z,5.90
2018-11-02T11:42:46.983Z,6.47
2018-11-02T11:45:17.438Z,5.20
2018-11-02T11:47:49.921Z,5.60
2018-11-02T11:50:21.466Z,5.80
2018-11-02T11:52:51.754Z,5.77
2018-11-02T11:55:20.775Z,5.90
2018-11-02T11:57:50.066Z,6.20
2018-11-02T12:00:20.500Z,6.60
2018-11-02T12:02:50.695Z,6.50
2018-11-02T12:05:21.861Z,6.50
2018-11-02T12:07:51.446Z,6.70
2018-11-02T12:10:22.037Z,6.43
2018-11-02T12:12:51.478Z,5.83
2018-11-02T12:15:22.037Z,6.73
2018-11-02T12:17:51.801Z,6.50
2018-11-02T12:20:23.228Z,6.37
2018-11-02T12:22:54.061Z,6.10
2018-11-02T12:25:22.922Z,5.90
2018-11-02T12:27:54.248Z,6.70
2018-11-02T12:30:23.713Z,6.10
2018-11-02T12:32:53.208Z,6.43
2018-11-02T12:35:23.008Z,6.10
2018-11-02T12:37:52.120Z,6.40
2018-11-02T12:40:23.265Z,7.03
2018-11-02T12:42:53.646Z,6.03
2018-11-02T12:45:23.132Z,6.63
2018-11-02T12:47:52.030Z,7.50
2018-11-02T12:50:24.423Z,8.50
2018-11-02T12:52:54.348Z,7.40
2018-11-02T12:55:23.557Z,7.50
2018-11-02T12:57:54.167Z,7.37
2018-11-02T13:00:24.453Z,7.57
2018-11-02T13:02:58.664Z,7.07
2018-11-02T13:05:29.437Z,6.77
2018-11-02T13:07:59.514Z,6.17
2018-11-02T13:10:28.963Z,7.00
2018-11-02T13:12:58.242Z,6.90
2018-11-02T13:15:28.089Z,6.60
2018-11-02T13:17:58.467Z,7.93
2018-11-02T13:20:28.123Z,7.60
2018-11-02T13:22:57.119Z,6.33
2018-11-02T13:25:26.132Z,6.37
2018-11-02T13:27:55.253Z,8.23
2018-11-02T13:30:24.324Z,8.30
2018-11-02T13:32:53.485Z,7.43
2018-11-02T13:35:22.492Z,8.00
2018-11-02T13:37:52.030Z,7.47
2018-11-02T13:40:21.341Z,7.77
2018-11-02T13:42:50.438Z,6.83
2018-11-02T13:45:19.610Z,7.90
2018-11-02T13:47:49.110Z,8.07
2018-11-02T13:50:18.075Z,7.63
2018-11-02T13:52:47.290Z,7.60
2018-11-02T13:55:16.113Z,9.27
2018-11-02T13:57:45.115Z,8.37
2018-11-02T14:00:15.764Z,8.60
2018-11-02T14:02:45.869Z,8.30
2018-11-02T14:05:15.943Z,7.60
2018-11-02T14:07:45.110Z,8.13
2018-11-02T14:10:15.297Z,7.70
2018-11-02T14:12:44.580Z,8.33
2018-11-02T14:15:15.663Z,8.60
2018-11-02T14:17:45.797Z,7.77
2018-11-02T14:20:16.187Z,9.63
2018-11-02T14:22:45.729Z,9.47
2018-11-02T14:25:16.699Z,9.37
2018-11-02T14:27:46.228Z,8.30
2018-11-02T14:30:16.339Z,8.37
2018-11-02T14:32:46.483Z,8.03
2018-11-02T14:35:16.326Z,8.17
2018-11-02T14:37:45.225Z,9.13
2018-11-02T14:40:14.115Z,9.53
2018-11-02T14:42:43.801Z,9.40
2018-11-02T14:45:16.636Z,11.40
2018-11-02T14:47:46.624Z,9.70
2018-11-02T14:50:16.205Z,10.83
2018-11-02T14:52:45.677Z,9.67
2018-11-02T14:55:15.314Z,10.20
2018-11-02T14:57:44.876Z,9.70
2018-11-02T15:00:14.525Z,9.77
2018-11-02T15:02:50.876Z,9.60
2018-11-02T15:05:20.643Z,9.90
2018-11-02T15:07:50.416Z,10.20
2018-11-02T15:10:19.561Z,11.50
2018-11-02T15:12:49.181Z,11.53
2018-11-02T15:15:18.711Z,12.57
2018-11-02T15:17:48.370Z,11.83
2018-11-02T15:20:18.810Z,11.80
2018-11-02T15:22:48.034Z,12.80
2018-11-02T15:25:18.199Z,13.47
2018-11-02T15:27:48.280Z,12.77
2018-11-02T15:30:17.713Z,13.47
2018-11-02T15:32:47.214Z,13.40
2018-11-02T15:35:17.603Z,13.30
2018-11-02T15:37:47.487Z,13.97
2018-11-02T15:40:17.002Z,13.53
2018-11-02T15:42:52.171Z,24.77
2018-11-02T15:45:21.024Z,20.50
2018-11-02T15:47:49.848Z,18.67
2018-11-02T15:50:18.729Z,13.97
2018-11-02T15:52:47.538Z,15.47
2018-11-02T15:55:16.406Z,12.67
2018-11-02T15:57:45.508Z,12.93
2018-11-02T16:00:18.397Z,13.33
2018-11-02T16:02:49.476Z,13.50
2018-11-02T16:05:18.956Z,13.77
2018-11-02T16:07:48.150Z,13.67
2018-11-02T16:10:19.220Z,15.40
2018-11-02T16:12:48.183Z,13.57
2018-11-02T16:15:17.945Z,15.17
2018-11-02T16:17:47.676Z,15.13
2018-11-02T16:20:16.731Z,15.20
2018-11-02T16:22:45.893Z,15.10
2018-11-02T16:25:16.969Z,14.90
2018-11-02T16:27:46.449Z,15.30
2018-11-02T16:30:15.700Z,18.37
2018-11-02T16:32:46.462Z,16.03
2018-11-02T16:35:16.157Z,16.53
2018-11-02T16:37:46.353Z,16.70
2018-11-02T16:40:15.959Z,17.17
2018-11-02T16:42:47.379Z,17.37
2018-11-02T16:45:16.953Z,16.10
2018-11-02T16:47:46.235Z,16.83
2018-11-02T16:50:15.926Z,17.30
2018-11-02T16:52:45.551Z,17.90
2018-11-02T16:55:15.084Z,18.63
2018-11-02T16:57:44.909Z,17.87
2018-11-02T17:00:16.833Z,18.20
2018-11-02T17:02:46.831Z,18.80
2018-11-02T17:05:18.942Z,16.97
2018-11-02T17:07:48.134Z,17.60
2018-11-02T17:10:17.127Z,17.53
2018-11-02T17:12:46.091Z,18.93
2018-11-02T17:15:15.389Z,20.60
2018-11-02T17:17:44.327Z,18.60
2018-11-02T17:20:19.193Z,21.33
2018-11-02T17:22:48.134Z,18.37
2018-11-02T17:25:18.782Z,19.30
2018-11-02T17:27:47.685Z,20.33
2018-11-02T17:30:17.922Z,21.57
2018-11-02T17:32:47.738Z,19.73
2018-11-02T17:35:17.977Z,21.30
2018-11-02T17:37:46.918Z,21.97
2018-11-02T17:40:16.229Z,23.30
2018-11-02T17:42:45.628Z,24.87
2018-11-02T17:45:14.533Z,24.27
2018-11-02T17:47:43.776Z,22.53
2018-11-02T17:50:13.881Z,23.80
2018-11-02T17:52:42.818Z,26.80
2018-11-02T17:55:12.035Z,27.13
2018-11-02T17:57:40.897Z,29.10
2018-11-02T18:00:11.460Z,30.13
2018-11-02T18:02:40.508Z,30.63
2018-11-02T18:05:10.428Z,28.13
2018-11-02T18:07:39.580Z,28.47
2018-11-02T18:10:10.983Z,26.20
2018-11-02T18:12:40.199Z,27.47
2018-11-02T18:15:09.514Z,31.57
2018-11-02T18:17:38.386Z,28.13
2018-11-02T18:20:09.635Z,27.03
2018-11-02T18:22:38.444Z,29.50
2018-11-02T18:25:07.687Z,29.93
2018-11-02T18:27:36.607Z,25.70
2018-11-02T18:30:06.753Z,23.57
2018-11-02T18:32:35.672Z,24.87
2018-11-02T18:35:04.653Z,24.47
2018-11-02T18:37:33.449Z,23.60
2018-11-02T18:40:02.519Z,24.17
2018-11-02T18:42:31.433Z,23.10
2018-11-02T18:45:00.304Z,26.77
2018-11-02T18:47:34.437Z,24.17
2018-11-02T18:50:03.309Z,26.90
2018-11-02T18:52:32.178Z,24.37
2018-11-02T18:55:01.075Z,23.90
2018-11-02T18:57:29.942Z,24.07
2018-11-02T18:59:58.839Z,25.03
2018-11-02T19:02:27.740Z,23.30
2018-11-02T19:04:56.648Z,23.50
2018-11-02T19:07:25.742Z,25.20
2018-11-02T19:09:54.658Z,33.10
2018-11-02T19:12:23.583Z,32.20
2018-11-02T19:14:52.537Z,25.60
2018-11-02T19:17:21.384Z,25.93
2018-11-02T19:19:50.304Z,24.83
2018-11-02T19:22:19.173Z,23.20
2018-11-02T19:24:48.046Z,21.67
2018-11-02T19:27:17.021Z,24.83
2018-11-02T19:29:45.850Z,23.33
2018-11-02T19:32:14.689Z,25.00
2018-11-02T19:34:43.717Z,24.80
2018-11-02T19:37:12.580Z,25.37
2018-11-02T19:39:41.639Z,25.57
2018-11-02T19:42:10.524Z,23.93
2018-11-02T19:44:39.425Z,25.30
2018-11-02T19:47:08.301Z,24.47
2018-11-02T19:49:37.137Z,25.70
2018-11-02T19:52:06.061Z,23.60
2018-11-02T19:54:35.037Z,25.47
2018-11-02T19:57:03.959Z,23.87
2018-11-02T19:59:32.789Z,23.73
2018-11-02T20:02:01.663Z,25.83
2018-11-02T20:04:30.568Z,27.83
2018-11-02T20:06:59.513Z,23.30
2018-11-02T20:09:28.503Z,25.27
2018-11-02T20:11:57.242Z,24.00
2018-11-02T20:14:26.251Z,26.43
2018-11-02T20:16:55.155Z,26.53
2018-11-02T20:19:24.424Z,26.00
2018-11-02T20:21:55.036Z,29.60
2018-11-02T20:24:23.964Z,31.57
2018-11-02T20:26:53.349Z,33.00
2018-11-02T20:29:22.509Z,29.73
2018-11-02T20:31:51.919Z,34.87
2018-11-02T20:34:21.072Z,34.43
2018-11-02T20:36:50.293Z,31.10
2018-11-02T20:39:19.434Z,33.00
2018-11-02T20:41:49.330Z,33.97
2018-11-02T20:44:18.402Z,33.07
2018-11-02T20:46:47.847Z,33.50
2018-11-02T20:49:17.330Z,31.80
2018-11-02T20:51:46.302Z,33.90
2018-11-02T20:54:15.541Z,33.10
2018-11-02T20:56:44.455Z,32.50
2018-11-02T20:59:13.254Z,30.33
2018-11-02T21:01:42.617Z,30.47
2018-11-02T21:04:11.479Z,30.90
2018-11-02T21:06:40.265Z,28.17
2018-11-02T21:09:11.476Z,26.47
2018-11-02T21:11:40.066Z,25.50
2018-11-02T21:14:13.148Z,24.63
2018-11-02T21:16:42.039Z,26.30
2018-11-02T21:19:10.888Z,27.30
2018-11-02T21:21:39.974Z,26.30
2018-11-02T21:24:09.072Z,25.43
2018-11-02T21:26:37.891Z,27.87
2018-11-02T21:29:06.825Z,23.00
2018-11-02T21:31:35.694Z,22.80
2018-11-02T21:34:05.105Z,21.70
2018-11-02T21:36:33.986Z,22.67
2018-11-02T21:39:02.936Z,23.40
2018-11-02T21:41:31.887Z,19.87
2018-11-02T21:44:00.763Z,21.00
2018-11-02T21:46:29.644Z,21.43
2018-11-02T21:48:59.266Z,18.90
2018-11-02T21:51:28.171Z,19.53
2018-11-02T21:54:03.089Z,20.00
2018-11-02T21:56:32.491Z,21.20
2018-11-02T21:59:04.942Z,21.43
2018-11-02T22:04:06.620Z,20.93
2018-11-02T22:06:35.467Z,21.30
2018-11-02T22:09:06.304Z,23.00
2018-11-02T22:11:35.337Z,20.17
2018-11-02T22:14:04.383Z,20.50
2018-11-02T22:16:33.349Z,20.97
2018-11-02T22:19:02.179Z,21.20
2018-11-02T22:21:31.043Z,20.13
2018-11-02T22:23:59.958Z,19.73
2018-11-02T22:26:28.790Z,21.60
2018-11-02T22:28:57.727Z,22.10
2018-11-02T22:31:26.599Z,20.10
2018-11-02T22:33:55.489Z,20.47
2018-11-02T22:36:24.384Z,20.20
2018-11-02T22:38:53.246Z,20.90
2018-11-02T22:41:22.093Z,21.50
2018-11-02T22:43:50.946Z,21.60
2018-11-02T22:46:19.870Z,21.30
2018-11-02T22:48:48.767Z,19.37
2018-11-02T22:51:17.918Z,22.57
2018-11-02T22:53:46.768Z,21.90
2018-11-02T22:56:15.748Z,21.30
2018-11-02T22:58:44.665Z,18.97
2018-11-02T23:01:18.662Z,21.60
2018-11-02T23:03:47.630Z,21.67
2018-11-02T23:06:16.574Z,21.37
2018-11-02T23:08:45.489Z,21.10
2018-11-02T23:11:14.462Z,22.60
2018-11-02T23:13:43.912Z,22.93
2018-11-02T23:16:12.786Z,18.73
2018-11-02T23:18:41.739Z,19.20
2018-11-02T23:21:10.667Z,19.93
2018-11-02T23:23:39.562Z,19.03
2018-11-02T23:26:08.450Z,18.40
2018-11-02T23:28:37.731Z,20.00
2018-11-02T23:31:06.589Z,18.70
2018-11-02T23:33:35.813Z,19.63
2018-11-02T23:36:04.822Z,20.00
2018-11-02T23:38:34.306Z,21.57
2018-11-02T23:41:03.549Z,21.20
2018-11-02T23:43:33.325Z,22.30
2018-11-02T23:46:02.532Z,20.63
2018-11-02T23:48:32.299Z,19.47
2018-11-02T23:51:01.574Z,19.27
2018-11-02T23:53:30.443Z,21.30
2018-11-02T23:55:59.336Z,21.67
2018-11-02T23:58:28.205Z,20.87
